Time;durP1;ratioP1;P1;durP2;ratioP2;P2;SDS_P1;SDS_P2;PMS_P1;PMS_P2;Temp;Humidity;BMP_temperature;BMP_pressure;BME280_temperature;BME280_humidity;BME280_pressure;Samples;Min_cycle;Max_cycle;Signal;HPM_P1;HPM_P2
2021/06/25 00:01:47;;;;;;;16.92;7.60;;;;;;;21.58;62.43;95863.06;3579985;40;20037;-55
2021/06/25 00:04:15;;;;;;;10.98;6.70;;;;;;;21.53;62.48;95854.41;3570110;40;20051;-55
2021/06/25 00:06:42;;;;;;;16.00;8.00;;;;;;;21.48;62.68;95850.03;3562797;40;20056;-55
2021/06/25 00:09:10;;;;;;;7.90;6.60;;;;;;;21.40;63.33;95843.63;3579878;40;20056;-55
2021/06/25 00:11:38;;;;;;;11.18;6.75;;;;;;;21.33;62.95;95840.69;3581589;40;20041;-55
2021/06/25 00:14:08;;;;;;;14.02;6.85;;;;;;;21.26;63.14;95830.47;3573544;40;20070;-55
2021/06/25 00:16:36;;;;;;;12.68;7.20;;;;;;;21.20;63.49;95837.13;3570778;40;20057;-55
2021/06/25 00:19:04;;;;;;;14.60;6.97;;;;;;;21.12;63.98;95832.63;3579181;40;20613;-56
2021/06/25 00:21:31;;;;;;;12.20;7.45;;;;;;;21.07;63.69;95836.28;3578305;40;20064;-56
2021/06/25 00:23:59;;;;;;;11.20;7.53;;;;;;;21.01;63.89;95837.56;3581662;40;20055;-56
2021/06/25 00:26:27;;;;;;;12.00;7.10;;;;;;;20.96;64.45;95833.19;3562893;40;20070;-56
2021/06/25 00:28:54;;;;;;;10.95;6.55;;;;;;;20.90;64.71;95831.81;3572128;40;20690;-56
2021/06/25 00:31:22;;;;;;;10.63;6.80;;;;;;;20.87;65.42;95849.31;3578391;40;20059;-56
2021/06/25 00:33:50;;;;;;;11.20;7.05;;;;;;;20.82;65.03;95854.88;3572102;40;20056;-56
2021/06/25 00:36:17;;;;;;;13.07;7.68;;;;;;;20.79;65.22;95863.56;3570890;40;20049;-56
2021/06/25 00:38:45;;;;;;;10.32;6.97;;;;;;;20.79;65.45;95871.59;3581807;40;20225;-56
2021/06/25 00:41:13;;;;;;;12.10;7.68;;;;;;;20.77;65.52;95871.13;3559992;40;20048;-56
2021/06/25 00:43:41;;;;;;;10.88;7.25;;;;;;;20.76;65.58;95868.78;3580798;40;20052;-56
2021/06/25 00:46:08;;;;;;;11.20;7.85;;;;;;;20.72;65.26;95871.31;3577657;40;20320;-56
2021/06/25 00:48:36;;;;;;;9.57;7.68;;;;;;;20.73;65.74;95879.00;3580043;40;20062;-56
2021/06/25 00:51:04;;;;;;;14.52;7.53;;;;;;;20.72;66.07;95877.44;3562672;40;20485;-57
2021/06/25 00:53:32;;;;;;;12.20;7.95;;;;;;;20.71;66.02;95867.06;3582494;40;20053;-56
2021/06/25 00:56:00;;;;;;;21.85;9.85;;;;;;;20.68;65.58;95859.66;3583396;40;20090;-56
2021/06/25 00:58:28;;;;;;;10.82;7.35;;;;;;;20.64;65.95;95859.50;3582525;40;20052;-56
2021/06/25 01:00:55;;;;;;;14.43;8.60;;;;;;;20.63;65.98;95843.72;3562872;40;20045;-56
2021/06/25 01:03:23;;;;;;;11.25;7.47;;;;;;;20.58;66.11;95837.47;3567668;40;20107;-56
2021/06/25 01:05:51;;;;;;;13.75;8.27;;;;;;;20.52;66.01;95833.38;3569072;40;20055;-56
2021/06/25 01:08:19;;;;;;;11.63;6.63;;;;;;;20.52;65.76;95840.66;3572475;40;20057;-56
2021/06/25 01:10:46;;;;;;;9.98;7.43;;;;;;;20.48;65.93;95840.50;3570121;40;20654;-56
2021/06/25 01:13:14;;;;;;;12.00;7.53;;;;;;;20.47;66.14;95835.44;3572013;40;20065;-56
2021/06/25 01:15:42;;;;;;;11.38;7.63;;;;;;;20.43;65.54;95838.00;3570271;40;20071;-56
2021/06/25 01:18:10;;;;;;;12.27;7.15;;;;;;;20.39;65.71;95837.06;3570529;40;20313;-57
2021/06/25 01:20:38;;;;;;;10.05;7.07;;;;;;;20.37;65.67;95828.56;3568765;40;20045;-56
2021/06/25 01:23:06;;;;;;;10.48;7.35;;;;;;;20.35;65.76;95836.91;3571555;40;20053;-56
2021/06/25 01:25:36;;;;;;;11.05;7.90;;;;;;;20.33;65.41;95831.09;3570101;40;20049;-57
2021/06/25 01:28:07;;;;;;;11.68;7.40;;;;;;;20.30;65.91;95837.09;3570691;40;20338;-56
2021/06/25 01:30:38;;;;;;;10.13;6.13;;;;;;;20.30;65.70;95823.72;3569392;40;20057;-56
2021/06/25 01:33:09;;;;;;;10.23;6.90;;;;;;;20.25;65.71;95832.69;3558405;40;20058;-56
2021/06/25 01:35:38;;;;;;;10.35;7.38;;;;;;;20.23;65.23;95824.22;3570679;40;20057;-57
2021/06/25 01:38:06;;;;;;;11.88;7.88;;;;;;;20.22;65.59;95828.00;3560448;40;20053;-56
2021/06/25 01:40:37;;;;;;;13.13;7.20;;;;;;;20.23;66.05;95823.41;3571016;40;20057;-57
2021/06/25 01:43:07;;;;;;;13.73;6.90;;;;;;;20.20;65.56;95824.03;3569137;40;20151;-56
2021/06/25 01:45:37;;;;;;;13.70;6.72;;;;;;;20.16;65.82;95823.91;3571303;40;20064;-56
2021/06/25 01:48:07;;;;;;;8.73;5.88;;;;;;;20.13;65.78;95829.88;3568467;40;20049;-57
2021/06/25 01:50:39;;;;;;;10.73;6.53;;;;;;;20.11;65.87;95832.13;3569943;40;20059;-61
2021/06/25 01:53:11;;;;;;;10.32;6.68;;;;;;;20.08;65.62;95817.47;3569932;40;20063;-54
2021/06/25 01:55:40;;;;;;;10.52;7.25;;;;;;;20.04;65.67;95805.84;3571308;40;20061;-55
2021/06/25 01:58:17;;;;;;;9.18;5.97;;;;;;;20.04;65.71;95818.41;3577773;40;20061;-55
2021/06/25 02:00:50;;;;;;;9.48;6.43;;;;;;;20.03;65.41;95830.22;3579523;40;20051;-55
2021/06/25 02:03:18;;;;;;;9.70;5.43;;;;;;;20.00;65.62;95834.34;3579075;40;20205;-55
2021/06/25 02:05:46;;;;;;;6.82;6.00;;;;;;;20.00;65.84;95842.38;3573043;40;20063;-55
2021/06/25 02:08:14;;;;;;;13.18;7.05;;;;;;;19.99;66.14;95845.38;3569378;40;20052;-55
2021/06/25 02:10:41;;;;;;;8.82;5.95;;;;;;;19.94;66.47;95841.75;3578754;40;20447;-55
2021/06/25 02:13:09;;;;;;;14.38;6.18;;;;;;;19.90;66.64;95843.47;3579692;40;20049;-57
2021/06/25 02:15:37;;;;;;;12.82;5.57;;;;;;;19.88;66.44;95845.69;3575350;40;20315;-55
2021/06/25 02:18:05;;;;;;;11.35;6.88;;;;;;;19.86;66.22;95847.91;3581226;40;20419;-54
2021/06/25 02:20:33;;;;;;;12.45;6.45;;;;;;;19.85;65.85;95849.00;3570387;40;20052;-55
2021/06/25 02:23:01;;;;;;;9.80;6.38;;;;;;;19.84;66.22;95839.38;3581335;40;20059;-56
2021/06/25 02:25:28;;;;;;;10.05;6.30;;;;;;;19.81;66.66;95835.47;3580026;40;20053;-56
2021/06/25 02:27:56;;;;;;;9.80;5.88;;;;;;;19.78;66.57;95846.78;3581804;40;20051;-57
2021/06/25 02:30:24;;;;;;;9.70;5.93;;;;;;;19.74;67.18;95845.06;3580335;40;20059;-57
2021/06/25 02:32:52;;;;;;;15.40;5.97;;;;;;;19.68;66.69;95849.78;3569141;40;20401;-56
2021/06/25 02:35:20;;;;;;;9.55;6.20;;;;;;;19.64;67.19;95844.25;3569728;40;20044;-57
2021/06/25 02:37:48;;;;;;;9.95;6.45;;;;;;;19.63;66.97;95844.59;3570417;40;20049;-57
2021/06/25 02:40:16;;;;;;;11.90;6.97;;;;;;;19.60;67.54;95840.66;3571915;40;20056;-57
2021/06/25 02:42:44;;;;;;;8.98;7.15;;;;;;;19.56;67.36;95836.25;3581097;40;20041;-55
2021/06/25 02:45:12;;;;;;;9.88;5.70;;;;;;;19.56;67.54;95839.72;3580944;40;20059;-55
2021/06/25 02:47:41;;;;;;;10.25;5.85;;;;;;;19.51;67.80;95838.00;3568788;40;20063;-55
2021/06/25 02:50:10;;;;;;;8.70;7.05;;;;;;;19.49;68.20;95839.41;3577826;40;20051;-57
2021/06/25 02:52:40;;;;;;;10.13;7.00;;;;;;;19.44;68.82;95842.22;3580813;40;20062;-55
2021/06/25 02:55:09;;;;;;;13.65;6.97;;;;;;;19.44;69.10;95839.56;3570208;40;20054;-55
2021/06/25 02:57:38;;;;;;;11.05;7.45;;;;;;;19.45;69.21;95843.81;3579573;40;20061;-55
2021/06/25 03:00:09;;;;;;;12.32;7.20;;;;;;;19.45;69.05;95852.59;3570532;40;20049;-55
2021/06/25 03:02:38;;;;;;;9.43;7.32;;;;;;;19.46;69.18;95840.03;3570091;40;20401;-56
2021/06/25 03:05:07;;;;;;;10.77;7.68;;;;;;;19.49;68.86;95834.06;3572578;40;20120;-55
2021/06/25 03:07:35;;;;;;;8.88;6.57;;;;;;;19.51;68.70;95829.16;3571207;40;20044;-55
2021/06/25 03:10:04;;;;;;;15.20;6.95;;;;;;;19.54;69.06;95817.06;3581196;40;20098;-55
2021/06/25 03:12:33;;;;;;;9.63;7.13;;;;;;;19.59;69.00;95820.38;3572226;40;20094;-55
2021/06/25 03:15:02;;;;;;;16.80;9.63;;;;;;;19.59;69.06;95817.69;3581539;40;20048;-55
2021/06/25 03:17:29;;;;;;;11.60;7.22;;;;;;;19.55;69.00;95818.63;3579826;40;20355;-55
2021/06/25 03:19:57;;;;;;;11.55;8.18;;;;;;;19.51;69.89;95821.13;3573932;40;20052;-55
2021/06/25 03:22:24;;;;;;;10.13;6.70;;;;;;;19.50;68.74;95819.59;3580939;40;20047;-55
2021/06/25 03:24:52;;;;;;;7.70;6.55;;;;;;;19.46;69.15;95821.31;3582544;40;20054;-55
2021/06/25 03:27:20;;;;;;;13.50;6.95;;;;;;;19.42;69.98;95826.50;3580088;40;20049;-55
2021/06/25 03:29:48;;;;;;;11.05;7.47;;;;;;;19.41;70.01;95824.13;3578946;40;20062;-55
2021/06/25 03:32:15;;;;;;;22.33;8.65;;;;;;;19.35;69.95;95837.69;3568677;40;20050;-55
2021/06/25 03:34:43;;;;;;;11.13;7.30;;;;;;;19.35;70.06;95824.31;3577068;40;20043;-55
2021/06/25 03:37:11;;;;;;;16.67;8.57;;;;;;;19.36;69.71;95831.22;3576015;40;21263;-55
2021/06/25 03:39:38;;;;;;;14.52;6.97;;;;;;;19.33;69.92;95826.50;3577479;40;20067;-55
2021/06/25 03:42:06;;;;;;;10.65;7.43;;;;;;;19.38;69.63;95827.44;3569560;40;20107;-55
2021/06/25 03:44:34;;;;;;;11.48;7.57;;;;;;;19.44;69.71;95836.88;3575490;40;20040;-55
2021/06/25 03:47:02;;;;;;;15.45;8.32;;;;;;;19.43;69.98;95824.59;3575679;40;20992;-55
2021/06/25 03:49:30;;;;;;;11.82;8.15;;;;;;;19.56;69.52;95833.59;3568838;40;20056;-55
2021/06/25 03:51:58;;;;;;;14.20;7.93;;;;;;;19.69;69.87;95835.31;3576199;40;20056;-55
2021/06/25 03:54:26;;;;;;;11.40;7.15;;;;;;;19.88;69.09;95829.63;3576123;40;20059;-55
2021/06/25 03:56:54;;;;;;;14.25;7.10;;;;;;;20.07;68.09;95834.63;3566627;40;20839;-55
2021/06/25 03:59:22;;;;;;;13.95;7.38;;;;;;;20.32;67.55;95839.44;3575714;40;20055;-55
2021/06/25 04:01:49;;;;;;;11.23;7.72;;;;;;;20.62;67.04;95845.63;3568252;40;20063;-55
2021/06/25 04:04:17;;;;;;;10.18;7.53;;;;;;;20.95;65.90;95844.25;3563132;40;20448;-56
2021/06/25 04:06:45;;;;;;;13.80;7.60;;;;;;;21.57;64.17;95847.28;3580754;40;20070;-55
2021/06/25 04:09:13;;;;;;;9.45;6.97;;;;;;;22.04;62.80;95847.06;3579446;40;20064;-56
2021/06/25 04:11:41;;;;;;;9.15;7.00;;;;;;;22.86;60.88;95850.09;3578935;40;20106;-55
2021/06/25 04:14:08;;;;;;;9.23;5.90;;;;;;;23.71;58.33;95844.09;3584947;40;20070;-56
2021/06/25 04:16:36;;;;;;;13.88;6.68;;;;;;;24.49;54.76;95847.31;3568967;40;20052;-56
2021/06/25 04:19:04;;;;;;;9.82;6.93;;;;;;;25.06;53.83;95836.31;3560225;40;20289;-55
2021/06/25 04:21:32;;;;;;;11.07;7.20;;;;;;;25.46;52.36;95842.59;3580342;40;20049;-55
2021/06/25 04:24:00;;;;;;;8.57;6.55;;;;;;;25.94;52.06;95848.53;3569931;40;20041;-56
2021/06/25 04:26:27;;;;;;;14.63;7.43;;;;;;;26.52;50.67;95852.28;3569936;40;20390;-56
2021/06/25 04:28:55;;;;;;;15.00;8.15;;;;;;;27.01;48.94;95845.34;3579961;40;20050;-56
2021/06/25 04:31:23;;;;;;;10.15;6.32;;;;;;;27.27;47.74;95857.28;3581246;40;20076;-56
2021/06/25 04:33:51;;;;;;;11.05;6.22;;;;;;;27.43;47.68;95848.19;3576088;40;20057;-56
2021/06/25 04:36:18;;;;;;;8.13;6.68;;;;;;;27.51;46.12;95849.88;3574225;40;20041;-56
2021/06/25 04:38:46;;;;;;;11.55;6.30;;;;;;;27.81;46.85;95857.19;3561397;40;20078;-56
2021/06/25 04:41:14;;;;;;;10.32;6.38;;;;;;;28.35;45.29;95857.78;3570872;40;20067;-56
2021/06/25 04:43:42;;;;;;;13.95;9.25;;;;;;;28.44;44.05;95865.63;3558267;40;20064;-56
2021/06/25 04:46:10;;;;;;;8.48;5.97;;;;;;;28.53;44.08;95862.59;3564283;40;20447;-57
2021/06/25 04:48:41;;;;;;;12.48;6.47;;;;;;;28.64;44.70;95862.69;3567642;40;20062;-56
2021/06/25 04:51:08;;;;;;;11.85;5.68;;;;;;;28.88;44.24;95857.84;3576026;40;20059;-56
2021/06/25 04:53:36;;;;;;;9.50;5.97;;;;;;;29.09;43.22;95863.44;3575919;40;20060;-57
2021/06/25 04:56:04;;;;;;;7.82;5.70;;;;;;;28.90;44.08;95869.91;3568119;40;20389;-56
2021/06/25 04:58:32;;;;;;;11.80;6.40;;;;;;;28.82;43.37;95860.13;3576812;40;20056;-57
2021/06/25 05:00:59;;;;;;;11.20;7.70;;;;;;;28.58;44.10;95861.47;3574564;40;20851;-57
2021/06/25 05:03:29;;;;;;;10.07;5.90;;;;;;;28.70;43.79;95861.97;3574028;40;20126;-56
2021/06/25 05:05:56;;;;;;;10.35;7.55;;;;;;;28.88;43.16;95863.28;3564267;40;20060;-56
2021/06/25 05:08:24;;;;;;;16.88;8.18;;;;;;;28.95;43.85;95863.34;3575825;40;20053;-56
2021/06/25 05:10:52;;;;;;;15.02;7.22;;;;;;;28.86;43.48;95855.50;3575728;40;20167;-56
2021/06/25 05:13:19;;;;;;;18.48;6.72;;;;;;;29.10;43.19;95856.06;3578494;40;20056;-57
2021/06/25 05:15:47;;;;;;;12.25;7.00;;;;;;;29.13;42.46;95847.94;3564197;40;20096;-56
2021/06/25 05:18:21;;;;;;;16.02;7.88;;;;;;;28.97;42.74;95840.06;3575439;40;20063;-56
2021/06/25 05:21:09;;;;;;;10.70;6.53;;;;;;;28.33;44.77;95846.53;3559795;40;20437;-56
2021/06/25 05:23:37;;;;;;;16.63;7.20;;;;;;;27.84;45.88;95842.13;3569654;40;20060;-56
2021/06/25 05:26:06;;;;;;;11.95;6.80;;;;;;;27.47;46.26;95839.00;3578498;40;20066;-56
2021/06/25 05:28:33;;;;;;;9.02;7.35;;;;;;;27.02;47.58;95841.47;3579180;40;20055;-56
2021/06/25 05:31:03;;;;;;;15.35;7.53;;;;;;;26.77;48.24;95840.31;3578902;40;20312;-56
2021/06/25 05:33:32;;;;;;;15.75;6.40;;;;;;;26.54;48.97;95835.69;3577162;40;20056;-56
2021/06/25 05:35:59;;;;;;;17.33;8.23;;;;;;;26.45;49.26;95845.97;3552568;40;20056;-56
2021/06/25 05:38:27;;;;;;;13.98;8.35;;;;;;;26.21;50.32;95842.47;3575742;40;20049;-56
2021/06/25 05:40:55;;;;;;;16.17;7.55;;;;;;;26.00;50.66;95826.63;3579940;40;20286;-56
2021/06/25 05:43:22;;;;;;;10.95;6.22;;;;;;;25.94;50.79;95835.03;3567239;40;20063;-56
2021/06/25 05:45:51;;;;;;;14.43;8.43;;;;;;;25.89;51.42;95838.03;3579903;40;20068;-56
2021/06/25 05:48:18;;;;;;;10.85;7.30;;;;;;;25.77;51.87;95841.66;3574093;40;20060;-56
2021/06/25 05:50:46;;;;;;;11.52;7.45;;;;;;;25.73;51.78;95829.19;3574417;40;20050;-56
2021/06/25 05:53:14;;;;;;;12.20;7.97;;;;;;;25.82;51.69;95831.69;3565350;40;20270;-56
2021/06/25 05:55:42;;;;;;;14.13;8.57;;;;;;;25.76;52.00;95823.91;3572931;40;20056;-56
2021/06/25 05:58:11;;;;;;;10.43;7.60;;;;;;;25.77;52.73;95828.16;3577068;40;20041;-56
2021/06/25 06:00:39;;;;;;;13.15;7.53;;;;;;;25.85;52.58;95822.88;3565594;40;20062;-56
2021/06/25 06:03:06;;;;;;;15.50;7.63;;;;;;;25.82;52.65;95818.19;3575224;40;20052;-56
2021/06/25 06:05:36;;;;;;;15.45;7.55;;;;;;;25.74;52.69;95820.75;3571571;40;20080;-55
2021/06/25 06:08:04;;;;;;;12.38;8.00;;;;;;;25.73;52.68;95819.19;3575716;40;20058;-55
2021/06/25 06:10:32;;;;;;;12.52;6.78;;;;;;;25.78;52.92;95821.63;3578071;40;20044;-56
2021/06/25 06:13:02;;;;;;;11.75;7.15;;;;;;;25.80;52.23;95813.16;3570913;40;20127;-56
2021/06/25 06:15:30;;;;;;;13.75;8.25;;;;;;;25.79;52.66;95820.47;3575745;40;20052;-56
2021/06/25 06:17:59;;;;;;;12.48;8.15;;;;;;;25.79;52.48;95817.75;3565869;40;20082;-56
2021/06/25 06:20:28;;;;;;;13.63;8.15;;;;;;;25.64;52.76;95816.72;3569688;40;20056;-57
2021/06/25 06:31:32;;;;;;;17.38;9.02;;;;;;;25.79;52.63;95823.16;3582639;40;20060;-57
2021/06/25 06:34:08;;;;;;;13.48;7.72;;;;;;;25.88;53.19;95822.94;3578610;40;20060;-57
2021/06/25 06:36:45;;;;;;;18.58;8.82;;;;;;;25.89;53.87;95815.63;3578315;40;20072;-57
2021/06/25 06:39:14;;;;;;;14.23;9.18;;;;;;;25.94;53.45;95818.03;3562748;40;20383;-57
2021/06/25 06:41:42;;;;;;;17.48;8.05;;;;;;;26.05;53.00;95819.00;3573837;40;20325;-57
2021/06/25 06:44:10;;;;;;;12.00;8.27;;;;;;;26.12;52.50;95814.91;3583667;40;20063;-57
2021/06/25 06:46:37;;;;;;;11.45;8.02;;;;;;;26.24;52.50;95814.72;3571288;40;20063;-57
2021/06/25 06:49:06;;;;;;;15.85;9.27;;;;;;;26.31;51.95;95811.38;3583010;40;20121;-57
2021/06/25 06:51:34;;;;;;;14.18;8.43;;;;;;;26.23;52.81;95813.16;3584174;40;20394;-57
2021/06/25 06:54:02;;;;;;;15.10;8.50;;;;;;;26.33;51.84;95803.69;3573705;40;20057;-57
2021/06/25 06:56:30;;;;;;;12.70;8.98;;;;;;;26.43;51.45;95804.97;3573616;40;20052;-57
2021/06/25 06:59:00;;;;;;;12.60;9.20;;;;;;;26.49;51.56;95803.53;3581555;40;20033;-58
2021/06/25 07:01:29;;;;;;;17.10;9.23;;;;;;;26.56;50.94;95806.34;3576900;40;20041;-57
2021/06/25 07:04:17;;;;;;;13.27;8.02;;;;;;;26.65;51.23;95801.47;3581219;40;20044;-57
2021/06/25 07:06:44;;;;;;;15.32;8.30;;;;;;;26.76;51.28;95796.22;3575777;40;20055;-57
2021/06/25 07:09:12;;;;;;;18.02;8.43;;;;;;;26.70;52.12;95793.03;3573342;40;20040;-58
2021/06/25 07:11:40;;;;;;;13.98;8.98;;;;;;;26.77;50.79;95805.13;3581955;40;20074;-57
2021/06/25 07:14:07;;;;;;;16.20;9.55;;;;;;;26.78;50.90;95799.38;3574245;40;20045;-57
2021/06/25 07:16:35;;;;;;;11.65;7.75;;;;;;;26.94;51.07;95804.63;3578018;40;20063;-58
2021/06/25 07:19:03;;;;;;;54.40;13.35;;;;;;;27.02;51.34;95808.22;3583500;40;20416;-57
2021/06/25 07:21:31;;;;;;;23.50;10.35;;;;;;;27.04;50.97;95803.22;3572555;40;20044;-57
2021/06/25 07:24:01;;;;;;;13.05;8.30;;;;;;;27.03;50.79;95798.94;3579030;40;20052;-57
2021/06/25 07:26:29;;;;;;;13.10;8.30;;;;;;;27.10;50.53;95795.56;3580881;40;20601;-57
2021/06/25 07:28:57;;;;;;;14.70;8.13;;;;;;;27.17;50.32;95799.13;3577542;40;20057;-55
2021/06/25 07:31:25;;;;;;;12.45;8.13;;;;;;;27.34;50.07;95798.94;3573047;40;20074;-55
2021/06/25 07:33:52;;;;;;;17.80;8.82;;;;;;;27.49;49.61;95803.44;3582808;40;20052;-55
2021/06/25 07:36:20;;;;;;;24.13;9.70;;;;;;;27.65;49.13;95794.28;3572958;40;20054;-55
2021/06/25 07:38:48;;;;;;;12.20;7.50;;;;;;;27.68;49.14;95794.34;3578056;40;20063;-55
2021/06/25 07:41:15;;;;;;;17.15;8.75;;;;;;;27.87;48.68;95798.03;3560817;40;20062;-55
2021/06/25 07:43:43;;;;;;;17.05;8.75;;;;;;;27.98;48.01;95790.78;3577208;40;20056;-55
2021/06/25 07:46:11;;;;;;;21.58;9.55;;;;;;;28.08;49.03;95795.53;3569721;40;20324;-55
2021/06/25 07:48:39;;;;;;;16.08;8.13;;;;;;;28.13;47.96;95797.13;3579652;40;20047;-55
2021/06/25 07:51:06;;;;;;;24.23;8.77;;;;;;;28.25;48.20;95804.22;3580074;40;20047;-55
2021/06/25 07:53:34;;;;;;;19.98;9.48;;;;;;;28.21;48.06;95809.63;3568100;40;22463;-55
2021/06/25 07:56:02;;;;;;;22.63;9.57;;;;;;;28.41;47.50;95805.91;3579026;40;20052;-57
2021/06/25 07:58:30;;;;;;;24.52;9.85;;;;;;;28.51;47.72;95805.97;3578620;40;20051;-55
2021/06/25 08:00:57;;;;;;;12.68;7.85;;;;;;;28.50;47.73;95803.66;3576222;40;20052;-56
2021/06/25 08:03:25;;;;;;;18.60;9.18;;;;;;;28.41;47.63;95805.91;3569483;40;20476;-56
2021/06/25 08:05:54;;;;;;;18.42;8.63;;;;;;;28.20;48.42;95796.41;3575698;40;20238;-56
2021/06/25 08:08:22;;;;;;;25.90;10.30;;;;;;;27.98;48.52;95806.28;3575816;40;20045;-56
2021/06/25 08:10:49;;;;;;;21.83;8.35;;;;;;;27.73;48.88;95823.81;3569303;40;20705;-56
2021/06/25 08:13:17;;;;;;;14.98;8.55;;;;;;;27.45;48.97;95816.91;3575950;40;20052;-55
2021/06/25 08:15:49;;;;;;;17.05;9.20;;;;;;;27.09;50.18;95808.28;3576433;40;20044;-56
2021/06/25 08:18:18;;;;;;;24.48;9.57;;;;;;;26.79;52.33;95810.97;3578531;40;20569;-56
2021/06/25 08:20:46;;;;;;;23.08;10.07;;;;;;;26.60;54.62;95831.53;3574289;40;20053;-55
2021/06/25 08:23:14;;;;;;;39.45;11.85;;;;;;;26.00;62.49;95830.13;3566435;40;20059;-55
2021/06/25 08:25:41;;;;;;;28.88;11.68;;;;;;;25.42;62.45;95841.72;3575744;40;20446;-55
2021/06/25 08:28:11;;;;;;;26.17;10.25;;;;;;;24.94;63.01;95845.31;3573060;40;20052;-55
2021/06/25 08:30:39;;;;;;;34.70;14.40;;;;;;;24.35;68.82;95822.69;3577769;40;20062;-54
2021/06/25 08:33:07;;;;;;;27.83;12.80;;;;;;;23.91;68.51;95835.06;3576854;40;20889;-55
2021/06/25 08:35:35;;;;;;;27.20;13.15;;;;;;;23.56;68.45;95830.25;3574748;40;20058;-54
2021/06/25 08:38:03;;;;;;;28.17;12.48;;;;;;;23.38;67.29;95842.41;3567337;40;20391;-55
2021/06/25 08:40:31;;;;;;;21.33;10.80;;;;;;;23.36;66.58;95840.06;3571221;40;20663;-57
2021/06/25 08:43:01;;;;;;;23.25;9.63;;;;;;;23.64;66.85;95821.25;3566707;40;20444;-56
2021/06/25 08:45:30;;;;;;;27.75;10.98;;;;;;;23.79;65.87;95822.41;3568138;40;20060;-54
2021/06/25 08:48:01;;;;;;;26.80;11.63;;;;;;;23.85;64.12;95822.94;3571909;40;20052;-55
2021/06/25 08:50:36;;;;;;;23.85;11.35;;;;;;;23.97;62.68;95832.13;3569212;40;20329;-54
2021/06/25 08:53:03;;;;;;;21.23;9.65;;;;;;;24.20;62.39;95827.72;3570665;40;20400;-55
2021/06/25 08:55:31;;;;;;;21.50;10.45;;;;;;;24.50;63.03;95823.81;3560561;40;20099;-56
2021/06/25 08:58:00;;;;;;;21.23;8.65;;;;;;;24.77;60.25;95814.09;3573968;40;20052;-56
2021/06/25 09:00:28;;;;;;;18.30;8.90;;;;;;;25.03;59.99;95826.22;3559905;40;20040;-56
2021/06/25 09:02:56;;;;;;;19.30;9.35;;;;;;;25.25;58.59;95816.66;3576947;40;20055;-55
2021/06/25 09:05:28;;;;;;;13.98;8.65;;;;;;;25.52;57.84;95808.75;3570638;40;20045;-56
2021/06/25 09:07:58;;;;;;;21.05;10.07;;;;;;;25.75;57.57;95805.31;3568666;40;20061;-55
2021/06/25 09:10:35;;;;;;;25.15;10.95;;;;;;;25.95;54.82;95797.97;3569887;40;20057;-57
2021/06/25 09:13:11;;;;;;;16.63;9.50;;;;;;;26.14;54.34;95809.91;3570785;40;20052;-56
2021/06/25 09:15:41;;;;;;;23.25;9.68;;;;;;;26.23;54.89;95808.53;3567342;40;20049;-56
2021/06/25 09:18:11;;;;;;;21.92;10.85;;;;;;;26.35;54.18;95807.56;3566577;40;20053;-56
2021/06/25 09:20:47;;;;;;;19.40;9.07;;;;;;;26.47;53.95;95811.22;3565419;40;20061;-56
2021/06/25 09:23:25;;;;;;;19.00;9.30;;;;;;;26.53;52.23;95812.47;3567582;40;20041;-56
2021/06/25 09:26:06;;;;;;;21.10;9.23;;;;;;;26.52;52.25;95806.28;3577818;40;20056;-56
2021/06/25 09:28:38;;;;;;;22.42;9.55;;;;;;;26.63;53.23;95809.19;3569784;40;20056;-56
2021/06/25 09:31:18;;;;;;;11.45;8.60;;;;;;;26.79;51.48;95821.78;3567877;40;20687;-56
2021/06/25 09:33:48;;;;;;;22.92;10.90;;;;;;;26.85;52.65;95814.94;3563863;40;20041;-55
2021/06/25 09:36:30;;;;;;;16.65;9.30;;;;;;;26.98;51.82;95819.00;3567561;40;20071;-55
2021/06/25 09:39:03;;;;;;;15.75;9.00;;;;;;;27.17;50.65;95820.00;3565708;40;20052;-56
2021/06/25 09:41:31;;;;;;;16.02;9.52;;;;;;;27.21;50.68;95825.47;3560106;40;20044;-55
2021/06/25 09:44:02;;;;;;;17.92;9.27;;;;;;;27.30;50.20;95815.94;3566320;40;20049;-56
2021/06/25 09:46:40;;;;;;;17.05;8.18;;;;;;;27.37;50.65;95817.94;3566989;40;20057;-55
2021/06/25 09:49:13;;;;;;;21.58;9.38;;;;;;;27.45;49.67;95824.25;3566044;40;20083;-56
2021/06/25 09:51:57;;;;;;;20.05;9.68;;;;;;;27.02;51.47;95816.34;3574871;40;20051;-55
2021/06/25 09:54:26;;;;;;;15.40;8.55;;;;;;;26.76;51.17;95822.50;3568794;40;20053;-55
2021/06/25 09:57:15;;;;;;;22.25;9.82;;;;;;;26.53;51.60;95826.78;3571257;40;20067;-56
2021/06/25 10:02:20;;;;;;;22.35;10.48;;;;;;;26.15;53.33;95843.94;3569258;40;20055;-57
2021/06/25 10:04:50;;;;;;;21.88;11.45;;;;;;;25.90;53.72;95853.09;3570068;40;20088;-57
2021/06/25 10:07:28;;;;;;;14.00;9.90;;;;;;;25.76;53.65;95845.50;3577468;40;20823;-56
2021/06/25 10:10:01;;;;;;;14.43;9.55;;;;;;;25.64;54.54;95842.94;3566849;40;20405;-55
2021/06/25 10:12:29;;;;;;;21.80;9.93;;;;;;;25.54;54.84;95851.63;3569727;40;20052;-55
2021/06/25 10:14:57;;;;;;;16.90;10.00;;;;;;;25.48;55.43;95849.19;3570646;40;20053;-54
2021/06/25 10:17:29;;;;;;;20.77;10.65;;;;;;;25.51;55.64;95849.63;3569934;40;20057;-55
2021/06/25 10:20:08;;;;;;;17.60;10.95;;;;;;;25.60;55.37;95842.09;3570850;40;20048;-56
2021/06/25 10:22:38;;;;;;;17.38;11.13;;;;;;;25.88;55.06;95843.78;3570656;40;20336;-55
2021/06/25 10:25:08;;;;;;;15.68;10.20;;;;;;;26.20;54.71;95852.53;3578820;40;20045;-56
2021/06/25 10:27:37;;;;;;;14.00;10.55;;;;;;;26.58;52.86;95860.88;3571405;40;20049;-55
2021/06/25 10:30:06;;;;;;;16.45;11.13;;;;;;;26.59;52.93;95865.16;3570628;40;20044;-55
2021/06/25 10:32:37;;;;;;;24.50;11.98;;;;;;;26.81;52.03;95879.84;3572672;40;20055;-56
2021/06/25 10:35:12;;;;;;;20.95;10.93;;;;;;;26.94;51.34;95871.53;3571740;40;20057;-56
2021/06/25 10:37:45;;;;;;;16.85;12.15;;;;;;;27.14;51.18;95866.75;3571087;40;20322;-55
2021/06/25 10:40:59;;;;;;;17.05;12.77;;;;;;;27.33;50.46;95863.16;3567231;40;20040;-56
2021/06/25 10:43:54;;;;;;;15.02;11.02;;;;;;;27.18;50.35;95870.31;3567519;40;20055;-55
2021/06/25 10:46:24;;;;;;;19.10;12.55;;;;;;;27.05;51.23;95872.47;3568707;40;20045;-56
2021/06/25 10:48:54;;;;;;;17.52;12.00;;;;;;;27.03;51.21;95858.50;3570670;40;20048;-55
2021/06/25 10:51:28;;;;;;;17.55;12.43;;;;;;;27.15;50.44;95865.63;3570677;40;20056;-56
2021/06/25 10:54:18;;;;;;;24.42;12.43;;;;;;;27.19;50.78;95877.28;3572110;40;20059;-56
2021/06/25 10:56:49;;;;;;;19.73;13.85;;;;;;;27.05;50.53;95852.72;3567945;40;20055;-56
2021/06/25 10:59:28;;;;;;;13.27;11.18;;;;;;;27.10;50.36;95882.97;3572919;40;20039;-56
2021/06/25 11:02:02;;;;;;;15.50;12.35;;;;;;;26.92;50.18;95895.47;3582194;40;20534;-56
2021/06/25 11:04:30;;;;;;;13.30;12.02;;;;;;;26.95;50.00;95892.81;3581202;40;20568;-56
2021/06/25 11:06:59;;;;;;;15.20;10.77;;;;;;;27.01;50.06;95898.69;3578471;40;20301;-56
2021/06/25 11:09:46;;;;;;;18.17;11.20;;;;;;;27.09;49.01;95896.88;3571716;40;20047;-56
2021/06/25 11:12:39;;;;;;;13.10;11.73;;;;;;;26.74;50.04;95887.78;3581329;40;20071;-56
2021/06/25 11:15:08;;;;;;;13.13;11.82;;;;;;;26.93;49.82;95881.53;3577763;40;20056;-56
2021/06/25 11:17:53;;;;;;;13.35;11.35;;;;;;;27.15;49.98;95888.06;3570142;40;20064;-56
2021/06/25 11:20:34;;;;;;;14.30;10.90;;;;;;;27.11;49.58;95886.47;3574196;40;20041;-56
2021/06/25 11:23:08;;;;;;;13.80;11.45;;;;;;;27.24;49.05;95901.34;3565653;40;20055;-56
2021/06/25 11:25:41;;;;;;;15.10;12.43;;;;;;;27.23;48.88;95912.53;3570493;40;20309;-56
2021/06/25 11:28:11;;;;;;;13.15;11.32;;;;;;;26.89;48.85;95913.22;3575795;40;20049;-57
2021/06/25 11:30:51;;;;;;;14.93;11.88;;;;;;;26.81;49.75;95906.91;3570831;40;20051;-56
2021/06/25 11:33:36;;;;;;;13.25;11.88;;;;;;;26.66;49.23;95911.25;3572009;40;20502;-56
2021/06/25 11:36:24;;;;;;;13.05;10.65;;;;;;;26.83;49.37;95914.66;3580233;40;20052;-56
2021/06/25 11:39:14;;;;;;;14.10;10.73;;;;;;;27.00;48.67;95927.69;3571443;40;20048;-56
2021/06/25 11:41:55;;;;;;;12.65;10.50;;;;;;;26.75;49.53;95929.19;3572012;40;20102;-56
2021/06/25 11:44:33;;;;;;;11.90;10.75;;;;;;;26.77;49.63;95924.19;3583681;40;20324;-57
2021/06/25 11:47:10;;;;;;;17.75;11.00;;;;;;;26.89;48.53;95926.75;3579377;40;20325;-55
2021/06/25 11:49:46;;;;;;;14.20;10.30;;;;;;;26.83;48.36;95928.94;3578601;40;20056;-56